createdAt,value
2023-06-09T00:01:32.032Z,101042.81
2023-06-09T00:03:58.937Z,101044.47
2023-06-09T00:06:25.611Z,101038.56
2023-06-09T00:08:52.334Z,101038.69
2023-06-09T00:11:19.977Z,101027.88
2023-06-09T00:13:46.853Z,101028.00
2023-06-09T00:16:13.377Z,101028.78
2023-06-09T00:18:41.345Z,101032.84
2023-06-09T00:21:07.935Z,101029.69
2023-06-09T00:23:35.229Z,101027.66
2023-06-09T00:26:02.023Z,101025.19
2023-06-09T00:28:28.913Z,101025.66
2023-06-09T00:30:55.505Z,101027.81
2023-06-09T00:33:22.111Z,101022.66
2023-06-09T00:35:50.320Z,101019.50
2023-06-09T00:38:16.903Z,101019.97
2023-06-09T00:40:43.451Z,101031.03
2023-06-09T00:43:09.939Z,101028.34
2023-06-09T00:45:36.422Z,101020.31
2023-06-09T00:48:03.061Z,101022.16
2023-06-09T00:50:31.043Z,101029.47
2023-06-09T00:52:59.340Z,101020.59
2023-06-09T00:55:27.375Z,101021.84
2023-06-09T00:57:57.312Z,101022.41
2023-06-09T01:00:28.632Z,101017.59
2023-06-09T01:03:03.286Z,101031.63
2023-06-09T01:05:33.806Z,101033.19
2023-06-09T01:08:24.845Z,101033.19
2023-06-09T01:10:54.358Z,101038.03
2023-06-09T01:13:54.733Z,101035.34
2023-06-09T01:16:28.739Z,101033.66
2023-06-09T01:18:58.577Z,101024.13
2023-06-09T01:21:50.130Z,101023.31
2023-06-09T01:24:31.474Z,101032.22
2023-06-09T01:27:04.098Z,101020.66
2023-06-09T01:29:33.853Z,101017.84
2023-06-09T01:32:03.744Z,101021.22
2023-06-09T01:34:31.640Z,101019.53
2023-06-09T01:36:59.229Z,101026.59
2023-06-09T01:39:27.277Z,101023.47
2023-06-09T01:41:54.009Z,101026.28
2023-06-09T01:44:20.603Z,101031.66
2023-06-09T01:46:47.192Z,101029.34
2023-06-09T01:49:30.801Z,101024.19
2023-06-09T01:52:25.433Z,101019.47
2023-06-09T01:55:01.245Z,101014.88
2023-06-09T01:57:34.059Z,101021.28
2023-06-09T02:00:04.886Z,101014.56
2023-06-09T02:02:34.304Z,101016.22
2023-06-09T02:05:04.239Z,101008.41
2023-06-09T02:07:31.965Z,101007.25
2023-06-09T02:09:58.728Z,101015.69
2023-06-09T02:12:31.766Z,101015.81
2023-06-09T02:14:58.313Z,101008.19
2023-06-09T02:17:24.907Z,101009.41
2023-06-09T02:19:51.415Z,101011.88
2023-06-09T02:22:17.910Z,101011.09
2023-06-09T02:24:44.409Z,101004.81
2023-06-09T02:27:11.031Z,101009.78
2023-06-09T02:29:37.583Z,101014.59
2023-06-09T02:32:04.475Z,101010.38
2023-06-09T02:34:32.194Z,101021.13
2023-06-09T02:37:00.432Z,101019.13
2023-06-09T02:39:26.966Z,101017.22
2023-06-09T02:41:53.521Z,101021.38
2023-06-09T02:44:20.123Z,101019.81
2023-06-09T02:46:46.692Z,101018.25
2023-06-09T02:49:13.248Z,101014.44
2023-06-09T02:51:39.799Z,101017.25
2023-06-09T02:54:06.323Z,101012.88
2023-06-09T02:56:32.854Z,101015.47
2023-06-09T02:58:59.750Z,101017.16
2023-06-09T03:01:28.257Z,101020.84
2023-06-09T03:03:55.166Z,101020.53
2023-06-09T03:06:21.720Z,101022.78
2023-06-09T03:08:48.243Z,101018.19
2023-06-09T03:11:14.841Z,101021.91
2023-06-09T03:13:41.338Z,101018.00
2023-06-09T03:16:08.431Z,101029.66
2023-06-09T03:18:34.916Z,101026.50
2023-06-09T03:21:05.400Z,101030.22
2023-06-09T03:23:34.684Z,101025.94
2023-06-09T03:26:01.172Z,101033.69
2023-06-09T03:28:27.958Z,101034.59
2023-06-09T03:30:56.003Z,101040.28
2023-06-09T03:33:23.905Z,101032.31
2023-06-09T03:35:50.793Z,101047.16
2023-06-09T03:38:17.656Z,101052.41
2023-06-09T03:40:44.444Z,101047.47
2023-06-09T03:43:12.308Z,101053.41
2023-06-09T03:45:39.180Z,101056.22
2023-06-09T03:48:07.535Z,101052.28
2023-06-09T03:50:34.574Z,101057.13
2023-06-09T03:53:01.473Z,101052.28
2023-06-09T03:55:32.384Z,101049.47
2023-06-09T03:57:58.962Z,101051.84
2023-06-09T04:00:25.557Z,101053.06
2023-06-09T04:02:52.078Z,101062.38
2023-06-09T04:05:18.676Z,101062.38
2023-06-09T04:07:45.421Z,101058.34
2023-06-09T04:10:12.003Z,101057.13
2023-06-09T04:12:39.252Z,101052.28
2023-06-09T04:15:07.839Z,101052.28
2023-06-09T04:17:35.326Z,101046.66
2023-06-09T04:20:05.863Z,101050.38
2023-06-09T04:22:32.705Z,101057.56
2023-06-09T04:24:59.192Z,101052.28
2023-06-09T04:27:26.858Z,101050.72
2023-06-09T04:29:53.414Z,101053.53
2023-06-09T04:32:20.320Z,101053.06
2023-06-09T04:34:47.833Z,101047.13
2023-06-09T04:37:15.174Z,101051.84
2023-06-09T04:39:46.606Z,101049.25
2023-06-09T04:42:13.538Z,101049.94
2023-06-09T04:44:41.416Z,101060.19
2023-06-09T04:47:11.750Z,101053.69
2023-06-09T04:49:38.709Z,101055.16
2023-06-09T04:52:08.654Z,101057.38
2023-06-09T04:54:35.374Z,101054.78
2023-06-09T04:57:03.338Z,101052.09
2023-06-09T04:59:29.968Z,101062.75
2023-06-09T05:01:56.673Z,101066.56
2023-06-09T05:04:23.214Z,101061.97
2023-06-09T05:06:49.921Z,101064.56
2023-06-09T05:09:16.714Z,101059.16
2023-06-09T05:11:43.200Z,101061.06
2023-06-09T05:14:09.754Z,101060.16
2023-06-09T05:16:36.382Z,101065.63
2023-06-09T05:19:03.355Z,101064.28
2023-06-09T05:21:30.041Z,101070.00
2023-06-09T05:23:56.805Z,101068.97
2023-06-09T05:26:23.524Z,101071.66
2023-06-09T05:28:50.287Z,101075.59
2023-06-09T05:31:17.840Z,101077.84
2023-06-09T05:33:45.187Z,101078.03
2023-06-09T05:36:13.298Z,101073.22
2023-06-09T05:38:39.972Z,101073.75
2023-06-09T05:41:06.856Z,101080.50
2023-06-09T05:43:33.558Z,101080.38
2023-06-09T05:46:00.636Z,101084.31
2023-06-09T05:48:27.162Z,101076.53
2023-06-09T05:50:53.744Z,101082.81
2023-06-09T05:53:20.331Z,101082.53
2023-06-09T05:55:47.102Z,101078.38
2023-06-09T05:58:15.139Z,101080.16
2023-06-09T06:00:42.740Z,101080.81
2023-06-09T06:03:11.667Z,101074.13
2023-06-09T06:05:39.063Z,101076.13
2023-06-09T06:08:07.369Z,101082.94
2023-06-09T06:10:33.959Z,101084.72
2023-06-09T06:13:03.260Z,101068.38
2023-06-09T06:15:29.871Z,101072.63
2023-06-09T06:17:56.539Z,101076.06
2023-06-09T06:20:23.102Z,101078.66
2023-06-09T06:22:49.981Z,101085.56
2023-06-09T06:25:18.801Z,101081.81
2023-06-09T06:27:48.160Z,101079.03
2023-06-09T06:30:15.899Z,101081.91
2023-06-09T06:32:54.098Z,101073.97
2023-06-09T06:35:28.367Z,101082.13
2023-06-09T06:37:55.698Z,101084.47
2023-06-09T06:40:22.752Z,101088.94
2023-06-09T06:42:49.338Z,101088.03
2023-06-09T06:45:16.755Z,101088.06
2023-06-09T06:47:44.710Z,101076.81
2023-06-09T06:50:11.413Z,101086.22
2023-06-09T06:52:38.139Z,101085.91
2023-06-09T06:55:08.481Z,101083.09
2023-06-09T06:57:36.340Z,101083.72
2023-06-09T07:02:52.105Z,101084.81
2023-06-09T07:05:18.958Z,101080.91
2023-06-09T07:07:46.876Z,101083.09
2023-06-09T07:10:14.185Z,101081.88
2023-06-09T07:12:42.609Z,101077.66
2023-06-09T07:15:09.718Z,101087.19
2023-06-09T07:17:36.398Z,101077.16
2023-06-09T07:20:03.598Z,101082.47
2023-06-09T07:22:30.163Z,101086.69
2023-06-09T07:24:57.273Z,101088.84
2023-06-09T07:27:23.805Z,101086.81
2023-06-09T07:29:50.323Z,101090.22
2023-06-09T07:32:17.672Z,101086.69
2023-06-09T07:34:46.414Z,101081.63
2023-06-09T07:37:14.572Z,101083.31
2023-06-09T07:39:41.156Z,101086.72
2023-06-09T07:42:08.017Z,101084.69
2023-06-09T07:44:35.216Z,101069.94
2023-06-09T07:47:03.442Z,101079.59
2023-06-09T07:49:29.982Z,101079.88
2023-06-09T07:51:56.958Z,101085.16
2023-06-09T07:54:24.230Z,101071.16
2023-06-09T07:56:51.450Z,101075.31
2023-06-09T07:59:18.582Z,101073.84
2023-06-09T08:01:45.706Z,101078.66
2023-06-09T08:04:12.568Z,101080.44
2023-06-09T08:06:39.250Z,101077.13
2023-06-09T08:09:05.972Z,101082.41
2023-06-09T08:11:34.824Z,101078.56
2023-06-09T08:14:01.439Z,101074.38
2023-06-09T08:16:28.091Z,101075.13
2023-06-09T08:18:54.621Z,101078.38
2023-06-09T08:21:21.312Z,101080.16
2023-06-09T08:23:47.996Z,101083.16
2023-06-09T08:26:14.851Z,101073.78
2023-06-09T08:28:41.542Z,101073.69
2023-06-09T08:31:10.103Z,101073.09
2023-06-09T08:33:37.379Z,101072.50
2023-06-09T08:36:05.164Z,101068.28
2023-06-09T08:38:36.695Z,101056.53
2023-06-09T08:41:09.306Z,101063.41
2023-06-09T08:43:36.386Z,101059.28
2023-06-09T08:46:06.822Z,101059.53
2023-06-09T08:48:35.105Z,101061.00
2023-06-09T08:51:02.562Z,101060.94
2023-06-09T08:53:30.549Z,101063.66
2023-06-09T08:55:59.383Z,101053.16
2023-06-09T08:58:27.738Z,101062.34
2023-06-09T09:00:55.507Z,101061.97
2023-06-09T09:03:22.155Z,101061.56
2023-06-09T09:05:48.932Z,101060.63
2023-06-09T09:08:15.573Z,101057.09
2023-06-09T09:10:46.796Z,101063.34
2023-06-09T09:13:14.363Z,101055.69
2023-06-09T09:15:49.194Z,101066.34
2023-06-09T09:18:17.540Z,101052.94
2023-06-09T09:20:44.983Z,101051.47
2023-06-09T09:23:11.545Z,101058.47
2023-06-09T09:25:38.632Z,101053.50
2023-06-09T09:28:13.709Z,101054.66
2023-06-09T09:30:41.097Z,101051.06
2023-06-09T09:33:19.941Z,101052.38
2023-06-09T09:35:49.453Z,101044.94
2023-06-09T09:38:19.392Z,101032.84
2023-06-09T09:40:48.354Z,101031.75
2023-06-09T09:43:16.046Z,101030.84
2023-06-09T09:46:05.888Z,101035.75
2023-06-09T09:48:34.331Z,101037.38
2023-06-09T09:51:01.786Z,101028.16
2023-06-09T09:53:28.755Z,101029.69
2023-06-09T09:55:57.497Z,101028.16
2023-06-09T09:58:33.055Z,101020.94
2023-06-09T10:01:04.262Z,101026.91
2023-06-09T10:03:32.298Z,101030.50
2023-06-09T10:06:01.345Z,101029.28
2023-06-09T10:08:32.731Z,101026.41
2023-06-09T10:11:03.862Z,101022.28
2023-06-09T10:13:30.947Z,101022.00
2023-06-09T10:15:58.373Z,101018.63
2023-06-09T10:18:25.056Z,101020.44
2023-06-09T10:20:55.814Z,101004.09
2023-06-09T10:23:23.972Z,101009.56
2023-06-09T10:25:51.885Z,101000.97
2023-06-09T10:28:19.806Z,100997.31
2023-06-09T10:30:48.301Z,100999.84
2023-06-09T10:33:25.245Z,100998.53
2023-06-09T10:35:57.646Z,101005.72
2023-06-09T10:38:31.802Z,101007.22
2023-06-09T10:41:32.823Z,101003.00
2023-06-09T10:44:08.585Z,101002.97
2023-06-09T10:46:42.469Z,100994.81
2023-06-09T10:49:25.878Z,101001.47
2023-06-09T10:51:56.876Z,101008.41
2023-06-09T10:54:25.076Z,101005.50
2023-06-09T10:56:58.904Z,101001.00
2023-06-09T10:59:25.554Z,101002.78
2023-06-09T11:02:04.676Z,101003.97
2023-06-09T11:04:43.341Z,100990.63
2023-06-09T11:07:11.020Z,100983.00
2023-06-09T11:09:37.724Z,100987.16
2023-06-09T11:12:04.612Z,100985.63
2023-06-09T11:14:47.111Z,100991.66
2023-06-09T11:17:27.804Z,100968.94
2023-06-09T11:20:12.126Z,100968.00
2023-06-09T11:22:42.426Z,100976.38
2023-06-09T11:25:09.868Z,100978.69
2023-06-09T11:27:36.467Z,100973.41
2023-06-09T11:30:09.636Z,100965.81
2023-06-09T11:32:54.440Z,100975.34
2023-06-09T11:35:23.807Z,100964.78
2023-06-09T11:37:54.714Z,100960.25
2023-06-09T11:40:22.709Z,100959.22
2023-06-09T11:42:49.864Z,100964.84
2023-06-09T11:45:18.957Z,100957.69
2023-06-09T11:47:46.957Z,100955.91
2023-06-09T11:50:14.746Z,100952.03
2023-06-09T11:52:46.113Z,100946.97
2023-06-09T11:55:14.602Z,100938.28
2023-06-09T11:57:41.224Z,100951.91
2023-06-09T12:00:14.186Z,100967.28
2023-06-09T12:02:46.486Z,100958.50
2023-06-09T12:05:14.378Z,100948.59
2023-06-09T12:07:45.705Z,100947.19
2023-06-09T12:10:18.434Z,100962.63
2023-06-09T12:12:52.315Z,100949.13
2023-06-09T12:15:20.717Z,100943.81
2023-06-09T12:17:52.830Z,100940.50
2023-06-09T12:20:38.262Z,100938.63
2023-06-09T12:23:14.079Z,100946.91
2023-06-09T12:25:44.199Z,100934.34
2023-06-09T12:28:33.240Z,100929.38
2023-06-09T12:31:14.498Z,100933.44
2023-06-09T12:33:47.361Z,100928.69
2023-06-09T12:36:14.040Z,100929.63
2023-06-09T12:38:43.631Z,100933.72
2023-06-09T12:41:14.133Z,100924.00
2023-06-09T12:43:57.811Z,100928.16
2023-06-09T12:46:29.746Z,100925.03
2023-06-09T12:49:02.675Z,100925.91
2023-06-09T12:51:34.293Z,100917.31
2023-06-09T12:54:06.864Z,100917.03
2023-06-09T12:56:34.734Z,100915.94
2023-06-09T12:59:01.254Z,100915.03
2023-06-09T13:01:37.295Z,100905.00
2023-06-09T13:04:05.638Z,100904.84
2023-06-09T13:06:35.856Z,100905.78
2023-06-09T13:09:03.495Z,100901.31
2023-06-09T13:11:37.353Z,100903.69
2023-06-09T13:14:03.886Z,100901.91
2023-06-09T13:16:32.469Z,100906.69
2023-06-09T13:18:59.929Z,100905.38
2023-06-09T13:21:43.688Z,100898.69
2023-06-09T13:24:12.988Z,100899.06
2023-06-09T13:26:39.827Z,100902.13
2023-06-09T13:29:06.697Z,100893.09
2023-06-09T13:31:33.319Z,100907.00
2023-06-09T13:33:59.909Z,100897.38
2023-06-09T13:36:26.733Z,100893.84
2023-06-09T13:38:53.316Z,100895.97
2023-06-09T13:41:19.908Z,100897.47
2023-06-09T13:43:46.499Z,100901.09
2023-06-09T13:46:13.136Z,100900.97
2023-06-09T13:48:40.419Z,100891.53
2023-06-09T13:51:07.228Z,100882.09
2023-06-09T13:53:33.757Z,100894.03
2023-06-09T13:56:00.249Z,100895.19
2023-06-09T13:58:27.094Z,100881.56
2023-06-09T14:01:01.694Z,100886.34
2023-06-09T14:03:28.327Z,100888.09
2023-06-09T14:05:55.107Z,100883.28
2023-06-09T14:08:21.807Z,100881.22
2023-06-09T14:10:48.295Z,100880.91
2023-06-09T14:13:14.798Z,100882.75
2023-06-09T14:15:43.839Z,100866.63
2023-06-09T14:18:10.411Z,100878.22
2023-06-09T14:20:36.953Z,100872.94
2023-06-09T14:23:10.017Z,100861.94
2023-06-09T14:25:36.911Z,100870.31
2023-06-09T14:28:03.628Z,100872.09
2023-06-09T14:30:30.554Z,100865.94
2023-06-09T14:32:57.141Z,100867.41
2023-06-09T14:35:26.006Z,100872.06
2023-06-09T14:37:52.577Z,100866.94
2023-06-09T14:40:19.579Z,100863.59
2023-06-09T14:42:49.959Z,100858.09
2023-06-09T14:45:24.147Z,100855.13
2023-06-09T14:47:56.251Z,100854.81
2023-06-09T14:50:30.388Z,100857.91
2023-06-09T14:52:57.699Z,100859.25
2023-06-09T14:55:26.371Z,100860.97
2023-06-09T14:57:54.588Z,100854.63
2023-06-09T15:00:22.617Z,100850.41
2023-06-09T15:02:51.989Z,100855.91
2023-06-09T15:05:20.969Z,100850.50
2023-06-09T15:07:48.090Z,100849.31
2023-06-09T15:10:14.649Z,100850.94
2023-06-09T15:12:41.236Z,100838.75
2023-06-09T15:15:08.406Z,100845.63
2023-06-09T15:17:35.052Z,100843.22
2023-06-09T15:20:02.137Z,100844.75
2023-06-09T15:22:28.685Z,100840.63
2023-06-09T15:24:55.664Z,100832.22
2023-06-09T15:27:22.343Z,100843.56
2023-06-09T15:29:49.003Z,100846.00
2023-06-09T15:32:16.107Z,100841.22
2023-06-09T15:34:42.699Z,100836.78
2023-06-09T15:37:09.226Z,100837.78
2023-06-09T15:39:35.754Z,100834.03
2023-06-09T15:42:02.883Z,100842.59
2023-06-09T15:44:29.389Z,100840.50
2023-06-09T15:46:56.141Z,100835.91
2023-06-09T15:49:22.680Z,100837.81
2023-06-09T15:51:49.121Z,100840.97
2023-06-09T15:54:16.101Z,100839.78
2023-06-09T15:56:42.617Z,100833.63
2023-06-09T15:59:09.303Z,100834.13
2023-06-09T16:01:35.839Z,100834.91
2023-06-09T16:04:02.470Z,100827.19
2023-06-09T16:06:29.031Z,100833.16
2023-06-09T16:08:55.669Z,100833.88
2023-06-09T16:11:22.213Z,100830.13
2023-06-09T16:13:48.679Z,100822.81
2023-06-09T16:16:15.449Z,100827.59
2023-06-09T16:18:41.916Z,100815.28
2023-06-09T16:21:08.500Z,100810.91
2023-06-09T16:23:35.095Z,100813.63
2023-06-09T16:26:01.708Z,100812.69
2023-06-09T16:28:28.171Z,100806.00
2023-06-09T16:30:54.851Z,100805.72
2023-06-09T16:33:21.380Z,100802.75
2023-06-09T16:35:47.963Z,100814.16
2023-06-09T16:38:14.542Z,100804.59
2023-06-09T16:40:41.167Z,100807.91
2023-06-09T16:43:07.784Z,100803.28
2023-06-09T16:45:34.328Z,100802.72
2023-06-09T16:48:01.092Z,100803.78
2023-06-09T16:50:27.742Z,100801.72
2023-06-09T16:52:55.483Z,100806.44
2023-06-09T16:55:22.389Z,100801.19
2023-06-09T16:57:48.897Z,100804.75
2023-06-09T17:00:16.099Z,100816.72
2023-06-09T17:02:42.834Z,100812.75
2023-06-09T17:05:10.339Z,100803.22
2023-06-09T17:07:38.028Z,100807.97
2023-06-09T17:10:05.004Z,100807.81
2023-06-09T17:12:33.236Z,100805.53
2023-06-09T17:15:00.525Z,100810.06
2023-06-09T17:17:27.095Z,100811.50
2023-06-09T17:19:53.748Z,100816.47
2023-06-09T17:22:21.535Z,100813.41
2023-06-09T17:24:48.187Z,100815.06
2023-06-09T17:27:14.742Z,100822.19
2023-06-09T17:29:41.309Z,100822.13
2023-06-09T17:32:09.478Z,100826.16
2023-06-09T17:34:36.066Z,100830.00
2023-06-09T17:37:02.602Z,100823.19
2023-06-09T17:39:31.154Z,100824.91
2023-06-09T17:41:58.174Z,100822.03
2023-06-09T17:44:24.661Z,100828.66
2023-06-09T17:46:51.190Z,100824.81
2023-06-09T17:49:17.732Z,100828.13
2023-06-09T17:51:44.248Z,100834.50
2023-06-09T17:54:10.748Z,100831.22
2023-06-09T17:56:37.342Z,100841.47
2023-06-09T17:59:03.917Z,100834.19
2023-06-09T18:01:30.499Z,100847.13
2023-06-09T18:03:57.038Z,100851.13
2023-06-09T18:06:23.532Z,100850.34
2023-06-09T18:08:50.250Z,100847.31
2023-06-09T18:11:16.857Z,100853.38
2023-06-09T18:13:44.563Z,100845.94
2023-06-09T18:16:13.978Z,100849.44
2023-06-09T18:18:40.555Z,100854.13
2023-06-09T18:21:09.201Z,100844.88
2023-06-09T18:23:36.134Z,100853.69
2023-06-09T18:26:02.728Z,100851.91
2023-06-09T18:28:29.307Z,100863.31
2023-06-09T18:30:55.955Z,100864.66
2023-06-09T18:33:23.622Z,100862.13
2023-06-09T18:35:50.352Z,100864.19
2023-06-09T18:38:16.983Z,100869.16
2023-06-09T18:40:43.532Z,100874.63
2023-06-09T18:43:10.053Z,100876.69
2023-06-09T18:45:37.765Z,100869.22
2023-06-09T18:48:04.387Z,100881.97
2023-06-09T18:50:31.060Z,100872.41
2023-06-09T18:52:57.673Z,100879.94
2023-06-09T18:55:24.180Z,100882.56
2023-06-09T18:57:50.682Z,100886.75
2023-06-09T19:00:17.445Z,100891.94
2023-06-09T19:02:44.895Z,100891.72
2023-06-09T19:05:11.896Z,100889.41
2023-06-09T19:07:38.746Z,100900.03
2023-06-09T19:10:05.823Z,100907.25
2023-06-09T19:12:32.336Z,100908.31
2023-06-09T19:14:59.441Z,100907.03
2023-06-09T19:17:27.104Z,100912.22
2023-06-09T19:19:53.620Z,100908.59
2023-06-09T19:22:22.259Z,100921.00
2023-06-09T19:24:49.123Z,100920.75
2023-06-09T19:27:15.700Z,100923.59
2023-06-09T19:29:42.234Z,100921.25
2023-06-09T19:32:08.839Z,100929.25
2023-06-09T19:34:35.354Z,100928.19
2023-06-09T19:37:03.707Z,100933.09
2023-06-09T19:39:31.320Z,100936.97
2023-06-09T19:41:57.799Z,100934.88
2023-06-09T19:44:24.292Z,100937.44
2023-06-09T19:46:51.005Z,100946.50
2023-06-09T19:49:17.637Z,100948.78
2023-06-09T19:51:44.531Z,100957.25
2023-06-09T19:54:11.538Z,100958.00
2023-06-09T19:56:47.109Z,100952.81
2023-06-09T19:59:17.014Z,100957.69
2023-06-09T20:01:44.954Z,100957.66
2023-06-09T20:04:11.639Z,100965.38
2023-06-09T20:06:39.678Z,100971.78
2023-06-09T20:09:06.181Z,100969.41
2023-06-09T20:11:33.394Z,100976.09
2023-06-09T20:13:59.891Z,100982.22
2023-06-09T20:16:26.570Z,100988.63
2023-06-09T20:18:53.189Z,100989.09
2023-06-09T20:21:21.740Z,100995.75
2023-06-09T20:23:49.915Z,100996.97
2023-06-09T20:26:19.003Z,101003.66
2023-06-09T20:28:46.047Z,101003.41
2023-06-09T20:31:12.936Z,100996.88
2023-06-09T20:33:45.713Z,101002.72
2023-06-09T20:36:12.802Z,101006.59
2023-06-09T20:38:39.664Z,100991.78
2023-06-09T20:41:06.574Z,101001.50
2023-06-09T20:43:33.564Z,101004.84
2023-06-09T20:46:01.822Z,101008.38
2023-06-09T20:48:32.528Z,101009.13
2023-06-09T20:50:59.046Z,101012.59
2023-06-09T20:53:25.954Z,101014.38
2023-06-09T20:55:52.459Z,101008.09
2023-06-09T20:58:19.465Z,101013.78
2023-06-09T21:00:49.864Z,101006.63
2023-06-09T21:03:17.240Z,101004.56
2023-06-09T21:05:44.582Z,101010.66
2023-06-09T21:08:11.762Z,101009.84
2023-06-09T21:10:38.371Z,101006.38
2023-06-09T21:13:04.893Z,101016.28
2023-06-09T21:15:31.438Z,101017.00
2023-06-09T21:17:58.171Z,101008.22
2023-06-09T21:20:24.996Z,101014.03
2023-06-09T21:22:51.526Z,101012.09
2023-06-09T21:25:18.078Z,101017.88
2023-06-09T21:27:44.924Z,101010.88
2023-06-09T21:30:11.804Z,101014.97
2023-06-09T21:32:38.730Z,101017.25
2023-06-09T21:35:07.130Z,101014.59
2023-06-09T21:37:34.688Z,101019.50
2023-06-09T21:40:03.271Z,101024.09
2023-06-09T21:42:29.769Z,101031.78
2023-06-09T21:44:56.349Z,101029.94
2023-06-09T21:47:22.951Z,101028.88
2023-06-09T21:49:49.540Z,101026.72
2023-06-09T21:52:16.130Z,101026.44
2023-06-09T21:54:42.744Z,101027.91
2023-06-09T21:57:11.042Z,101035.72
2023-06-09T21:59:37.838Z,101036.72
2023-06-09T22:02:05.120Z,101037.69
2023-06-09T22:04:31.910Z,101035.50
2023-06-09T22:06:58.472Z,101039.84
2023-06-09T22:09:24.969Z,101034.34
2023-06-09T22:11:51.888Z,101034.75
2023-06-09T22:14:18.509Z,101039.00
2023-06-09T22:16:49.877Z,101042.50
2023-06-09T22:19:17.945Z,101042.69
2023-06-09T22:21:45.075Z,101035.06
2023-06-09T22:24:12.889Z,101037.78
2023-06-09T22:26:58.609Z,101041.31
2023-06-09T22:29:26.585Z,101041.00
2023-06-09T22:31:53.131Z,101042.94
2023-06-09T22:34:19.787Z,101043.13
2023-06-09T22:36:46.362Z,101046.50
2023-06-09T22:39:14.335Z,101046.97
2023-06-09T22:41:41.258Z,101046.06
2023-06-09T22:44:08.087Z,101046.91
2023-06-09T22:46:34.995Z,101046.00
2023-06-09T22:49:04.184Z,101043.22
2023-06-09T22:51:31.065Z,101045.25
2023-06-09T22:53:59.556Z,101049.34
2023-06-09T22:56:26.906Z,101046.69
2023-06-09T22:58:53.632Z,101044.69
2023-06-09T23:01:20.170Z,101041.28
2023-06-09T23:03:46.876Z,101044.09
2023-06-09T23:06:15.077Z,101040.56
2023-06-09T23:08:41.701Z,101043.38
2023-06-09T23:11:08.278Z,101049.50
2023-06-09T23:13:34.812Z,101036.06
2023-06-09T23:16:01.651Z,101040.91
2023-06-09T23:18:30.545Z,101040.78
2023-06-09T23:20:57.208Z,101038.91
2023-06-09T23:23:26.874Z,101043.16
2023-06-09T23:25:53.357Z,101042.72
2023-06-09T23:28:19.868Z,101035.34
2023-06-09T23:30:46.337Z,101044.44
2023-06-09T23:33:13.675Z,101039.47
2023-06-09T23:35:40.396Z,101046.06
2023-06-09T23:38:06.904Z,101047.94
2023-06-09T23:40:33.424Z,101048.13
2023-06-09T23:42:59.919Z,101038.72
2023-06-09T23:45:26.743Z,101042.81
2023-06-09T23:47:53.469Z,101035.75
2023-06-09T23:50:20.004Z,101033.56
2023-06-09T23:52:46.514Z,101038.13
2023-06-09T23:55:13.324Z,101038.91
2023-06-09T23:57:40.014Z,101047.06
